Time;durP1;ratioP1;P1;durP2;ratioP2;P2;SDS_P1;SDS_P2;PMS_P1;PMS_P2;Temp;Humidity;BMP_temperature;BMP_pressure;BME280_temperature;BME280_humidity;BME280_pressure;Samples;Min_cycle;Max_cycle;Signal;HPM_P1;HPM_P2
2024/03/01 00:00:46;;;;;;;36.58;17.98;;;;;;;;;;4951026;29;20093;-80
2024/03/01 00:03:13;;;;;;;41.17;18.38;;;;;;;;;;4942100;29;20098;-80
2024/03/01 00:05:40;;;;;;;37.00;18.30;;;;;;;;;;4938227;29;20055;-78
2024/03/01 00:08:06;;;;;;;37.58;17.15;;;;;;;;;;4961721;28;20055;-77
2024/03/01 00:10:33;;;;;;;34.05;17.77;;;;;;;;;;4953789;29;20062;-78
2024/03/01 00:12:59;;;;;;;41.08;19.10;;;;;;;;;;4955256;29;20079;-78
2024/03/01 00:15:26;;;;;;;36.95;17.08;;;;;;;;;;4936661;29;20139;-78
2024/03/01 00:17:53;;;;;;;32.28;16.88;;;;;;;;;;4935292;29;20044;-78
2024/03/01 00:20:22;;;;;;;35.85;16.63;;;;;;;;;;4935494;29;20114;-78
2024/03/01 00:22:50;;;;;;;42.30;18.83;;;;;;;;;;4948539;28;20155;-78
2024/03/01 00:25:18;;;;;;;36.47;18.02;;;;;;;;;;4943130;29;20055;-78
2024/03/01 00:27:45;;;;;;;38.67;18.80;;;;;;;;;;4958638;28;20066;-78
2024/03/01 00:30:12;;;;;;;38.40;17.95;;;;;;;;;;4959689;28;20528;-78
2024/03/01 00:32:39;;;;;;;42.88;19.38;;;;;;;;;;4943364;29;20060;-81
2024/03/01 00:35:06;;;;;;;36.42;18.42;;;;;;;;;;4961748;29;20051;-80
2024/03/01 00:37:33;;;;;;;42.28;19.83;;;;;;;;;;4944260;29;20051;-80
2024/03/01 00:39:59;;;;;;;43.53;19.50;;;;;;;;;;4961218;28;20081;-79
2024/03/01 00:42:26;;;;;;;42.08;19.50;;;;;;;;;;4961379;28;20051;-80
2024/03/01 00:44:53;;;;;;;38.88;18.98;;;;;;;;;;4941605;29;20059;-80
2024/03/01 00:47:19;;;;;;;38.65;18.30;;;;;;;;;;4954124;28;20066;-80
2024/03/01 00:49:48;;;;;;;35.67;18.08;;;;;;;;;;4937109;29;20059;-80
2024/03/01 00:52:14;;;;;;;37.47;17.38;;;;;;;;;;4961314;28;20110;-80
2024/03/01 00:54:41;;;;;;;40.33;19.30;;;;;;;;;;4943922;29;20083;-80
2024/03/01 00:57:08;;;;;;;39.38;19.35;;;;;;;;;;4949578;29;20048;-81
2024/03/01 00:59:34;;;;;;;35.88;18.58;;;;;;;;;;4942125;29;20111;-80
2024/03/01 01:02:01;;;;;;;42.25;18.92;;;;;;;;;;4964865;29;20055;-80
2024/03/01 01:04:28;;;;;;;41.35;18.17;;;;;;;;;;4961113;28;20063;-82
2024/03/01 01:06:54;;;;;;;33.40;17.45;;;;;;;;;;4940616;29;20102;-81
2024/03/01 01:09:21;;;;;;;39.40;17.60;;;;;;;;;;4953279;28;20071;-81
2024/03/01 01:11:48;;;;;;;36.90;17.27;;;;;;;;;;4957090;29;20130;-81
2024/03/01 01:14:15;;;;;;;33.10;15.90;;;;;;;;;;4943843;29;20053;-81
2024/03/01 01:16:41;;;;;;;34.50;17.92;;;;;;;;;;4960004;28;20091;-81
2024/03/01 01:19:08;;;;;;;36.72;16.38;;;;;;;;;;4960176;28;20051;-81
2024/03/01 01:21:35;;;;;;;35.92;17.55;;;;;;;;;;4959521;28;20162;-81
2024/03/01 01:24:02;;;;;;;31.65;15.43;;;;;;;;;;4944728;29;20138;-81
2024/03/01 01:26:29;;;;;;;34.67;17.45;;;;;;;;;;4945023;29;20051;-81
2024/03/01 01:28:56;;;;;;;41.05;17.17;;;;;;;;;;4941808;29;20083;-81
2024/03/01 01:31:23;;;;;;;35.67;17.98;;;;;;;;;;4952761;28;20055;-80
2024/03/01 01:33:50;;;;;;;36.67;16.52;;;;;;;;;;4957208;29;20059;-81
2024/03/01 01:36:16;;;;;;;36.78;18.45;;;;;;;;;;4944463;29;20426;-81
2024/03/01 01:38:43;;;;;;;36.05;17.00;;;;;;;;;;4961380;28;20482;-79
2024/03/01 01:41:09;;;;;;;39.00;17.85;;;;;;;;;;4945132;29;20525;-80
2024/03/01 01:43:38;;;;;;;40.95;18.27;;;;;;;;;;4955719;29;20040;-80
2024/03/01 01:46:04;;;;;;;35.90;17.67;;;;;;;;;;4979400;28;20039;-79
2024/03/01 01:48:31;;;;;;;33.42;16.27;;;;;;;;;;4974806;28;20059;-79
2024/03/01 01:50:58;;;;;;;36.67;17.55;;;;;;;;;;4978443;28;20055;-78
2024/03/01 01:53:24;;;;;;;41.40;19.83;;;;;;;;;;4949168;29;20088;-80
2024/03/01 01:55:56;;;;;;;42.03;19.65;;;;;;;;;;4961973;29;20474;-80
2024/03/01 01:58:23;;;;;;;37.42;17.52;;;;;;;;;;4962160;28;20113;-79
2024/03/01 02:00:50;;;;;;;35.70;17.30;;;;;;;;;;4969668;28;20054;-80
2024/03/01 02:03:16;;;;;;;35.75;17.73;;;;;;;;;;4961582;28;20051;-81
2024/03/01 02:05:43;;;;;;;41.22;19.90;;;;;;;;;;4976286;28;20113;-79
2024/03/01 02:08:10;;;;;;;41.20;19.92;;;;;;;;;;4960736;28;20059;-80
2024/03/01 02:10:36;;;;;;;43.45;19.33;;;;;;;;;;4960839;29;20094;-78
2024/03/01 02:13:03;;;;;;;43.25;20.77;;;;;;;;;;4976859;28;20445;-79
2024/03/01 02:15:30;;;;;;;38.30;19.17;;;;;;;;;;4942366;29;20059;-79
2024/03/01 02:17:57;;;;;;;37.83;19.55;;;;;;;;;;4969137;28;20047;-78
2024/03/01 02:20:25;;;;;;;39.35;18.73;;;;;;;;;;4943125;29;20060;-78
2024/03/01 02:23:00;;;;;;;44.60;20.48;;;;;;;;;;4941383;29;20056;-78
2024/03/01 02:25:27;;;;;;;43.00;19.45;;;;;;;;;;4939837;29;20067;-80
2024/03/01 02:27:54;;;;;;;41.22;19.02;;;;;;;;;;4960403;29;20051;-78
2024/03/01 02:30:20;;;;;;;43.15;19.95;;;;;;;;;;4939718;29;20115;-78
2024/03/01 02:32:47;;;;;;;39.47;18.10;;;;;;;;;;4953756;29;20059;-79
2024/03/01 02:35:14;;;;;;;38.95;19.92;;;;;;;;;;4978193;28;20055;-79
2024/03/01 02:37:43;;;;;;;38.00;18.65;;;;;;;;;;4945622;29;20080;-79
2024/03/01 02:40:11;;;;;;;37.50;17.23;;;;;;;;;;4946165;29;20484;-79
2024/03/01 02:42:37;;;;;;;36.70;18.90;;;;;;;;;;4959317;28;20052;-79
2024/03/01 02:45:04;;;;;;;35.17;17.45;;;;;;;;;;4943675;29;20054;-79
2024/03/01 02:47:31;;;;;;;40.30;19.92;;;;;;;;;;4959628;29;20497;-79
2024/03/01 02:49:58;;;;;;;33.40;17.95;;;;;;;;;;4959390;29;20162;-79
2024/03/01 02:52:25;;;;;;;34.35;17.88;;;;;;;;;;4943616;29;20058;-79
2024/03/01 02:54:52;;;;;;;46.08;19.95;;;;;;;;;;4959290;29;20055;-79
2024/03/01 02:57:18;;;;;;;39.97;18.30;;;;;;;;;;4960113;29;20047;-79
2024/03/01 02:59:45;;;;;;;41.72;19.75;;;;;;;;;;4944277;29;20100;-79
2024/03/01 03:02:11;;;;;;;41.58;20.10;;;;;;;;;;4943967;29;20055;-82
2024/03/01 03:04:38;;;;;;;44.50;19.70;;;;;;;;;;4960488;29;20058;-81
2024/03/01 03:07:05;;;;;;;46.38;20.40;;;;;;;;;;4960138;29;20078;-81
2024/03/01 03:09:41;;;;;;;43.67;21.02;;;;;;;;;;4965234;29;20035;-79
2024/03/01 03:12:07;;;;;;;37.35;19.02;;;;;;;;;;4962627;29;20114;-79
2024/03/01 03:14:34;;;;;;;39.13;18.92;;;;;;;;;;4960959;29;20043;-80
2024/03/01 03:17:01;;;;;;;41.00;21.00;;;;;;;;;;4978896;28;20043;-78
2024/03/01 03:19:27;;;;;;;37.97;17.98;;;;;;;;;;4978074;28;20083;-78
2024/03/01 03:21:54;;;;;;;38.47;19.00;;;;;;;;;;4972119;28;20051;-80
2024/03/01 03:24:21;;;;;;;44.35;19.67;;;;;;;;;;4959792;29;20055;-81
2024/03/01 03:26:47;;;;;;;44.45;18.60;;;;;;;;;;4940692;29;20055;-78
2024/03/01 03:29:14;;;;;;;45.55;20.30;;;;;;;;;;4956399;29;20055;-80
2024/03/01 03:31:41;;;;;;;37.50;18.77;;;;;;;;;;4954298;29;20051;-80
2024/03/01 03:34:08;;;;;;;41.45;18.98;;;;;;;;;;4954192;29;20059;-80
2024/03/01 03:36:35;;;;;;;38.42;19.48;;;;;;;;;;4954253;29;20054;-80
2024/03/01 03:39:02;;;;;;;39.92;19.33;;;;;;;;;;4970560;28;20477;-80
2024/03/01 03:41:29;;;;;;;38.33;17.60;;;;;;;;;;4940021;29;20070;-79
2024/03/01 03:43:55;;;;;;;37.55;18.60;;;;;;;;;;4960505;29;20055;-80
2024/03/01 03:46:22;;;;;;;34.97;17.75;;;;;;;;;;4943027;29;20059;-81
2024/03/01 03:48:49;;;;;;;37.20;19.35;;;;;;;;;;4943444;29;20059;-77
2024/03/01 03:51:25;;;;;;;39.30;18.70;;;;;;;;;;4959359;29;20440;-79
2024/03/01 03:53:55;;;;;;;42.17;18.77;;;;;;;;;;4940341;29;20062;-79
2024/03/01 03:56:22;;;;;;;37.90;18.45;;;;;;;;;;4942005;29;20102;-79
2024/03/01 03:58:52;;;;;;;39.33;18.05;;;;;;;;;;4942702;29;20058;-79
2024/03/01 04:01:21;;;;;;;39.90;18.27;;;;;;;;;;4957690;29;20556;-79
2024/03/01 04:03:49;;;;;;;37.63;17.17;;;;;;;;;;4967062;28;20067;-79
2024/03/01 04:06:16;;;;;;;37.58;18.15;;;;;;;;;;4943285;29;20078;-79
2024/03/01 04:08:42;;;;;;;38.65;18.05;;;;;;;;;;4958354;29;20070;-80
2024/03/01 04:11:09;;;;;;;32.80;17.73;;;;;;;;;;4958134;29;20067;-79
2024/03/01 04:13:36;;;;;;;39.22;19.42;;;;;;;;;;4957342;29;20127;-80
2024/03/01 04:16:05;;;;;;;41.95;19.08;;;;;;;;;;4957452;29;20650;-80
2024/03/01 04:18:32;;;;;;;38.40;18.15;;;;;;;;;;4941114;29;20062;-80
2024/03/01 04:20:59;;;;;;;38.70;19.27;;;;;;;;;;4941347;29;20059;-80
2024/03/01 04:23:26;;;;;;;36.92;18.48;;;;;;;;;;4940589;29;20069;-80
2024/03/01 04:25:53;;;;;;;34.58;18.98;;;;;;;;;;4941802;29;20063;-80
2024/03/01 04:28:20;;;;;;;38.35;18.27;;;;;;;;;;4956714;29;20122;-81
2024/03/01 04:30:47;;;;;;;39.35;19.75;;;;;;;;;;4955349;29;20059;-81
2024/03/01 04:33:14;;;;;;;33.72;17.58;;;;;;;;;;4955578;29;20067;-81
2024/03/01 04:35:41;;;;;;;38.38;17.05;;;;;;;;;;4955727;29;20091;-81
2024/03/01 04:38:08;;;;;;;36.70;18.40;;;;;;;;;;4956654;29;20063;-81
2024/03/01 04:40:37;;;;;;;40.83;18.50;;;;;;;;;;4940173;29;20059;-81
2024/03/01 04:43:04;;;;;;;33.53;17.80;;;;;;;;;;4942500;29;20055;-80
2024/03/01 04:45:31;;;;;;;39.05;19.67;;;;;;;;;;4940107;29;20082;-81
2024/03/01 04:47:58;;;;;;;40.03;19.35;;;;;;;;;;4958604;29;20058;-79
2024/03/01 04:50:25;;;;;;;41.95;19.35;;;;;;;;;;4975164;28;20062;-80
2024/03/01 04:52:51;;;;;;;40.15;18.48;;;;;;;;;;4955434;28;20494;-79
2024/03/01 04:55:18;;;;;;;34.60;17.35;;;;;;;;;;4958098;29;20051;-79
2024/03/01 04:57:45;;;;;;;39.75;19.60;;;;;;;;;;4943482;29;20055;-80
2024/03/01 05:00:12;;;;;;;40.33;19.50;;;;;;;;;;4958872;29;20526;-80
2024/03/01 05:02:40;;;;;;;35.08;17.27;;;;;;;;;;4941507;29;20059;-80
2024/03/01 05:05:11;;;;;;;38.15;17.80;;;;;;;;;;4941162;29;20054;-80
2024/03/01 05:07:40;;;;;;;35.92;18.40;;;;;;;;;;4945616;29;20094;-81
2024/03/01 05:10:10;;;;;;;36.17;18.35;;;;;;;;;;4942283;29;20525;-81
2024/03/01 05:12:38;;;;;;;34.22;17.48;;;;;;;;;;4960096;28;20056;-81
2024/03/01 05:15:05;;;;;;;40.50;17.73;;;;;;;;;;4965876;29;20055;-81
2024/03/01 05:17:32;;;;;;;36.38;17.23;;;;;;;;;;4962741;28;20054;-79
2024/03/01 05:19:59;;;;;;;41.65;19.05;;;;;;;;;;4942823;29;20079;-80
2024/03/01 05:22:26;;;;;;;42.17;17.65;;;;;;;;;;4942760;29;20098;-80
2024/03/01 05:24:52;;;;;;;39.00;18.90;;;;;;;;;;4943635;29;20051;-80
2024/03/01 05:27:19;;;;;;;37.50;18.13;;;;;;;;;;4944334;29;20051;-80
2024/03/01 05:29:46;;;;;;;37.35;18.45;;;;;;;;;;4960679;29;20121;-81
2024/03/01 05:32:12;;;;;;;43.92;19.70;;;;;;;;;;4960913;28;20461;-81
2024/03/01 05:34:39;;;;;;;44.90;20.40;;;;;;;;;;4978508;28;20121;-81
2024/03/01 05:37:06;;;;;;;39.42;18.70;;;;;;;;;;4942990;29;20052;-82
2024/03/01 05:39:33;;;;;;;38.90;19.75;;;;;;;;;;4959925;29;20056;-79
2024/03/01 05:41:59;;;;;;;36.67;18.67;;;;;;;;;;4939937;29;20058;-77
2024/03/01 05:44:26;;;;;;;43.47;18.27;;;;;;;;;;4955723;28;20114;-81
2024/03/01 05:46:53;;;;;;;36.20;18.30;;;;;;;;;;4943964;29;20056;-80
2024/03/01 05:49:20;;;;;;;41.25;18.35;;;;;;;;;;4955693;28;20082;-80
2024/03/01 05:51:47;;;;;;;45.45;19.52;;;;;;;;;;4955696;29;20055;-80
2024/03/01 05:54:13;;;;;;;42.25;20.10;;;;;;;;;;4945442;29;20181;-80
2024/03/01 05:56:40;;;;;;;43.30;20.27;;;;;;;;;;4962562;28;20076;-79
2024/03/01 05:59:07;;;;;;;38.13;19.83;;;;;;;;;;4963894;29;20517;-80
2024/03/01 06:01:34;;;;;;;40.13;19.15;;;;;;;;;;4963815;29;20055;-80
2024/03/01 06:04:09;;;;;;;43.33;19.40;;;;;;;;;;4964111;28;20059;-82
2024/03/01 06:06:37;;;;;;;34.65;18.90;;;;;;;;;;4979506;28;20047;-83
2024/03/01 06:09:04;;;;;;;85.70;42.75;;;;;;;;;;4965019;28;20059;-83
2024/03/01 06:11:31;;;;;;;47.20;27.25;;;;;;;;;;4962465;29;20577;-80
2024/03/01 06:13:58;;;;;;;38.78;19.95;;;;;;;;;;4955962;28;20505;-79
2024/03/01 06:16:25;;;;;;;41.53;17.83;;;;;;;;;;4954142;28;20070;-80
2024/03/01 06:18:52;;;;;;;44.42;20.50;;;;;;;;;;4941029;29;20471;-82
2024/03/01 06:21:22;;;;;;;43.00;19.65;;;;;;;;;;4957574;28;20574;-81
2024/03/01 06:23:52;;;;;;;44.33;19.88;;;;;;;;;;4950066;29;20055;-82
2024/03/01 06:26:18;;;;;;;34.58;18.02;;;;;;;;;;4971492;28;20055;-83
2024/03/01 06:28:45;;;;;;;38.30;19.05;;;;;;;;;;4958617;28;20067;-81
2024/03/01 06:31:12;;;;;;;40.58;19.55;;;;;;;;;;4961874;28;20067;-81
2024/03/01 06:33:40;;;;;;;39.40;18.45;;;;;;;;;;4945415;29;20070;-81
2024/03/01 06:36:08;;;;;;;39.55;18.50;;;;;;;;;;4961913;28;20051;-80
2024/03/01 06:38:36;;;;;;;34.35;17.90;;;;;;;;;;4962226;28;20047;-80
2024/03/01 06:41:05;;;;;;;38.72;18.20;;;;;;;;;;4944978;29;20147;-87
2024/03/01 06:43:31;;;;;;;40.85;18.27;;;;;;;;;;4958663;28;20087;-78
2024/03/01 06:46:00;;;;;;;43.78;19.17;;;;;;;;;;4958906;28;20071;-80
2024/03/01 06:48:26;;;;;;;40.75;19.45;;;;;;;;;;4958789;28;20071;-78
2024/03/01 06:50:53;;;;;;;40.30;19.77;;;;;;;;;;4955842;28;20101;-82
2024/03/01 06:53:20;;;;;;;39.63;18.95;;;;;;;;;;4937728;29;20087;-76
2024/03/01 06:55:47;;;;;;;37.55;19.73;;;;;;;;;;4949940;28;20063;-77
2024/03/01 06:58:13;;;;;;;40.63;20.58;;;;;;;;;;4966401;28;20078;-77
2024/03/01 07:00:46;;;;;;;41.38;20.02;;;;;;;;;;4954331;28;20051;-78
2024/03/01 07:03:13;;;;;;;;;;;;;;;;;;4957533;28;20066;-77
2024/03/01 07:05:40;;;;;;;40.78;19.15;;;;;;;;;;4972554;28;20381;-79
2024/03/01 07:08:07;;;;;;;33.88;17.25;;;;;;;;;;4937612;29;20099;-77
2024/03/01 07:10:34;;;;;;;40.53;20.55;;;;;;;;;;4953086;28;20063;-78
2024/03/01 07:13:01;;;;;;;40.15;19.70;;;;;;;;;;4936590;29;20058;-77
2024/03/01 07:15:29;;;;;;;36.15;18.60;;;;;;;;;;4951388;28;20139;-77
2024/03/01 07:17:59;;;;;;;35.83;18.00;;;;;;;;;;4956782;28;20478;-77
2024/03/01 07:20:25;;;;;;;40.63;18.27;;;;;;;;;;4954364;29;20130;-78
2024/03/01 07:22:52;;;;;;;36.63;19.42;;;;;;;;;;4956113;28;20067;-77
2024/03/01 07:25:19;;;;;;;36.30;18.52;;;;;;;;;;4954910;29;20055;-77
2024/03/01 07:27:46;;;;;;;42.30;20.15;;;;;;;;;;4955285;28;20414;-77
2024/03/01 07:30:12;;;;;;;39.30;19.48;;;;;;;;;;4936773;29;20059;-77
2024/03/01 07:32:41;;;;;;;37.08;18.92;;;;;;;;;;4954820;28;20096;-77
2024/03/01 07:35:08;;;;;;;40.50;19.73;;;;;;;;;;4956479;28;20054;-77
2024/03/01 07:37:35;;;;;;;40.92;19.85;;;;;;;;;;4962867;28;20055;-78
2024/03/01 07:40:05;;;;;;;38.65;17.17;;;;;;;;;;4933875;28;20521;-80
2024/03/01 07:42:32;;;;;;;41.05;18.38;;;;;;;;;;4941823;29;20098;-81
2024/03/01 07:44:59;;;;;;;32.75;17.58;;;;;;;;;;4941856;29;20082;-81
2024/03/01 07:47:29;;;;;;;35.72;19.52;;;;;;;;;;4946437;28;20057;-80
2024/03/01 07:49:56;;;;;;;36.17;17.33;;;;;;;;;;4953787;28;20166;-82
2024/03/01 07:52:29;;;;;;;35.63;17.77;;;;;;;;;;4963920;28;20059;-83
2024/03/01 07:54:56;;;;;;;32.85;18.05;;;;;;;;;;4954156;28;20059;-82
2024/03/01 07:57:23;;;;;;;31.15;16.48;;;;;;;;;;4955172;28;20102;-82
2024/03/01 07:59:50;;;;;;;37.80;17.67;;;;;;;;;;4970153;28;20051;-82
2024/03/01 08:02:17;;;;;;;35.60;18.90;;;;;;;;;;4939507;28;20055;-84
2024/03/01 08:04:44;;;;;;;37.78;19.00;;;;;;;;;;4972857;28;20062;-81
2024/03/01 08:07:14;;;;;;;38.80;19.55;;;;;;;;;;4959053;28;20076;-79
2024/03/01 08:09:42;;;;;;;35.70;17.73;;;;;;;;;;4972790;28;20066;-80
2024/03/01 08:12:10;;;;;;;31.33;16.35;;;;;;;;;;4943817;29;20106;-78
2024/03/01 08:14:37;;;;;;;35.72;17.45;;;;;;;;;;4961088;28;20059;-79
2024/03/01 08:17:04;;;;;;;34.20;17.52;;;;;;;;;;4959063;28;20051;-80
2024/03/01 08:19:35;;;;;;;29.88;16.70;;;;;;;;;;4955624;28;20052;-78
2024/03/01 08:22:13;;;;;;;35.42;17.23;;;;;;;;;;4940941;29;20054;-79
2024/03/01 08:24:41;;;;;;;29.63;16.02;;;;;;;;;;4940713;29;20055;-79
2024/03/01 08:27:09;;;;;;;34.70;16.88;;;;;;;;;;4937384;28;20078;-79
2024/03/01 08:29:36;;;;;;;32.97;17.52;;;;;;;;;;4940313;29;20126;-82
2024/03/01 08:32:03;;;;;;;37.22;17.85;;;;;;;;;;4935690;28;20110;-82
2024/03/01 08:34:37;;;;;;;30.33;17.33;;;;;;;;;;4940452;29;20422;-80
2024/03/01 08:37:05;;;;;;;28.92;16.00;;;;;;;;;;4938115;28;20051;-86
2024/03/01 08:39:33;;;;;;;28.10;16.60;;;;;;;;;;4976041;28;20054;-80
2024/03/01 08:42:03;;;;;;;34.75;15.93;;;;;;;;;;4959434;28;20391;-81
2024/03/01 08:44:38;;;;;;;32.15;16.88;;;;;;;;;;4943573;28;20069;-83
2024/03/01 08:47:06;;;;;;;30.70;16.05;;;;;;;;;;4942655;29;20051;-84
2024/03/01 08:49:54;;;;;;;33.70;16.63;;;;;;;;;;4942376;28;20062;-84
2024/03/01 08:52:22;;;;;;;35.08;16.77;;;;;;;;;;4957584;28;20067;-83
2024/03/01 08:54:50;;;;;;;28.35;15.88;;;;;;;;;;4960517;28;20066;-83
2024/03/01 08:57:25;;;;;;;33.92;16.65;;;;;;;;;;4970221;28;20061;-84
2024/03/01 08:59:51;;;;;;;30.25;16.38;;;;;;;;;;4991083;28;20067;-81
2024/03/01 09:02:48;;;;;;;29.75;16.00;;;;;;;;;;4982095;29;20052;-81
2024/03/01 09:05:18;;;;;;;27.67;15.63;;;;;;;;;;4981569;28;20034;-81
2024/03/01 09:07:45;;;;;;;28.52;15.38;;;;;;;;;;4955109;28;20047;-81
2024/03/01 09:10:30;;;;;;;28.67;16.42;;;;;;;;;;4941061;29;20050;-81
2024/03/01 09:12:57;;;;;;;33.92;17.48;;;;;;;;;;4957959;28;20433;-81
2024/03/01 09:15:25;;;;;;;36.00;17.45;;;;;;;;;;4956924;28;20568;-81
2024/03/01 09:17:52;;;;;;;34.05;16.23;;;;;;;;;;4956108;28;20050;-80
2024/03/01 09:20:22;;;;;;;27.55;15.35;;;;;;;;;;4940801;28;20090;-80
2024/03/01 09:22:49;;;;;;;30.77;16.48;;;;;;;;;;4941194;29;20059;-80
2024/03/01 09:25:46;;;;;;;28.27;15.15;;;;;;;;;;4957912;28;20055;-80
2024/03/01 09:28:14;;;;;;;27.70;15.27;;;;;;;;;;4955575;28;20051;-80
2024/03/01 09:30:41;;;;;;;26.88;14.68;;;;;;;;;;4945465;29;20528;-82
2024/03/01 09:33:11;;;;;;;25.08;14.60;;;;;;;;;;4946795;28;20063;-80
2024/03/01 09:35:41;;;;;;;27.48;14.82;;;;;;;;;;4946697;29;20055;-79
2024/03/01 09:38:08;;;;;;;25.00;14.57;;;;;;;;;;4963443;28;20055;-80
2024/03/01 09:40:37;;;;;;;26.38;14.60;;;;;;;;;;4944235;29;20055;-83
2024/03/01 09:43:23;;;;;;;26.25;13.52;;;;;;;;;;4960396;28;20047;-80
2024/03/01 09:45:51;;;;;;;27.15;14.25;;;;;;;;;;4959155;28;20051;-79
2024/03/01 09:48:23;;;;;;;27.98;16.45;;;;;;;;;;4981570;28;20074;-80
2024/03/01 09:51:04;;;;;;;29.88;16.80;;;;;;;;;;4958504;28;20083;-80
2024/03/01 09:53:40;;;;;;;31.73;17.20;;;;;;;;;;4951690;28;20098;-80
2024/03/01 09:56:11;;;;;;;32.70;17.30;;;;;;;;;;4976584;28;20502;-79
2024/03/01 09:58:38;;;;;;;31.77;17.65;;;;;;;;;;4966024;28;20043;-80
2024/03/01 10:01:15;;;;;;;32.30;18.27;;;;;;;;;;4962582;28;20055;-81
2024/03/01 10:03:52;;;;;;;34.25;17.55;;;;;;;;;;4983107;28;20074;-80
2024/03/01 10:06:38;;;;;;;32.22;17.42;;;;;;;;;;4948732;29;20111;-80
2024/03/01 10:09:34;;;;;;;32.53;18.33;;;;;;;;;;4979403;28;20102;-81
2024/03/01 10:12:17;;;;;;;28.20;16.70;;;;;;;;;;4946401;28;20526;-80
2024/03/01 10:14:51;;;;;;;31.00;18.38;;;;;;;;;;4962434;28;20079;-81
2024/03/01 10:17:27;;;;;;;32.20;16.50;;;;;;;;;;4944930;29;20110;-80
2024/03/01 10:20:00;;;;;;;30.17;17.45;;;;;;;;;;4976234;28;20536;-79
2024/03/01 10:22:42;;;;;;;34.38;18.67;;;;;;;;;;4961521;28;20043;-80
2024/03/01 10:25:28;;;;;;;30.05;16.83;;;;;;;;;;4974923;28;20588;-80
2024/03/01 10:27:55;;;;;;;28.30;16.38;;;;;;;;;;4973634;28;20065;-81
2024/03/01 10:30:29;;;;;;;36.10;17.80;;;;;;;;;;4958847;28;20514;-80
2024/03/01 10:33:12;;;;;;;28.83;16.00;;;;;;;;;;4956729;28;20063;-80
2024/03/01 10:36:00;;;;;;;27.27;15.57;;;;;;;;;;4957543;28;20067;-81
2024/03/01 10:38:31;;;;;;;23.83;12.98;;;;;;;;;;4972283;28;20111;-82
2024/03/01 10:41:04;;;;;;;21.38;12.27;;;;;;;;;;4943035;28;20054;-82
2024/03/01 10:43:46;;;;;;;18.65;10.60;;;;;;;;;;4955947;28;20163;-82
2024/03/01 10:46:19;;;;;;;17.13;11.00;;;;;;;;;;4955626;28;20043;-82
2024/03/01 10:48:57;;;;;;;18.80;10.23;;;;;;;;;;4963708;28;20081;-81
2024/03/01 10:51:24;;;;;;;22.13;11.27;;;;;;;;;;4936983;28;20063;-82
2024/03/01 10:53:55;;;;;;;18.73;9.65;;;;;;;;;;4956769;28;20091;-82
2024/03/01 10:56:22;;;;;;;20.70;9.30;;;;;;;;;;4956570;28;20066;-82
2024/03/01 10:58:54;;;;;;;15.93;9.32;;;;;;;;;;4957753;28;20051;-82
2024/03/01 11:01:33;;;;;;;13.32;7.60;;;;;;;;;;4958247;28;20047;-82
2024/03/01 11:04:03;;;;;;;14.25;8.55;;;;;;;;;;4953923;28;20048;-80
2024/03/01 11:06:34;;;;;;;16.52;9.00;;;;;;;;;;4957071;28;20051;-82
2024/03/01 11:09:09;;;;;;;14.07;8.23;;;;;;;;;;4945664;28;20085;-83
2024/03/01 11:11:51;;;;;;;15.02;8.20;;;;;;;;;;4939167;28;20047;-81
2024/03/01 11:14:18;;;;;;;12.95;7.30;;;;;;;;;;4959904;28;20055;-80
2024/03/01 11:16:47;;;;;;;11.75;7.35;;;;;;;;;;4944103;28;20047;-81
2024/03/01 11:19:15;;;;;;;12.43;7.45;;;;;;;;;;4960367;28;20504;-80
2024/03/01 11:21:43;;;;;;;13.32;7.80;;;;;;;;;;4959429;28;20160;-80
2024/03/01 11:24:14;;;;;;;13.85;8.15;;;;;;;;;;4940378;28;20052;-81
2024/03/01 11:26:44;;;;;;;12.90;7.60;;;;;;;;;;4959422;28;20051;-81
2024/03/01 11:29:12;;;;;;;13.88;7.75;;;;;;;;;;4965458;28;20177;-81
2024/03/01 11:31:39;;;;;;;11.68;7.35;;;;;;;;;;4960497;28;20055;-81
2024/03/01 11:34:07;;;;;;;13.63;8.13;;;;;;;;;;4960784;28;20083;-81
2024/03/01 11:36:40;;;;;;;13.90;7.22;;;;;;;;;;4943959;29;20059;-81
2024/03/01 11:39:07;;;;;;;;;;;;;;;;;;4959714;28;20043;-81
2024/03/01 11:41:34;;;;;;;11.18;7.28;;;;;;;;;;4959604;28;19933;-80
2024/03/01 11:44:14;;;;;;;14.00;7.28;;;;;;;;;;4959176;28;20051;-80
2024/03/01 11:46:59;;;;;;;11.73;7.22;;;;;;;;;;4959581;28;20051;-80
2024/03/01 11:49:32;;;;;;;11.55;7.03;;;;;;;;;;4968154;28;20059;-80
2024/03/01 11:52:20;;;;;;;12.27;7.30;;;;;;;;;;4975783;28;20059;-80
2024/03/01 11:55:06;;;;;;;10.25;6.85;;;;;;;;;;4968384;28;20070;-80
2024/03/01 11:57:43;;;;;;;12.07;7.22;;;;;;;;;;4973620;28;20055;-79
2024/03/01 12:00:09;;;;;;;11.80;7.30;;;;;;;;;;4991323;28;20047;-77
2024/03/01 12:02:36;;;;;;;9.23;6.55;;;;;;;;;;4962216;28;20514;-80
2024/03/01 12:05:19;;;;;;;10.10;6.72;;;;;;;;;;4958023;28;20078;-82
2024/03/01 12:07:46;;;;;;;;;;;;;;;;;;4947761;28;20051;-77
2024/03/01 12:10:32;;;;;;;9.07;6.30;;;;;;;;;;4954124;28;19923;-77
2024/03/01 12:13:00;;;;;;;9.10;5.80;;;;;;;;;;4978216;28;20082;-78
2024/03/01 12:15:31;;;;;;;10.23;6.15;;;;;;;;;;4937646;28;20055;-77
2024/03/01 12:18:04;;;;;;;10.68;6.03;;;;;;;;;;4956385;28;20505;-77
2024/03/01 12:20:33;;;;;;;9.65;5.95;;;;;;;;;;4978357;28;20067;-78
2024/03/01 12:23:08;;;;;;;7.82;5.25;;;;;;;;;;4941021;29;20059;-78
2024/03/01 12:25:36;;;;;;;9.73;5.70;;;;;;;;;;4940920;29;20122;-78
2024/03/01 12:28:08;;;;;;;9.38;5.65;;;;;;;;;;4940863;28;20469;-77
2024/03/01 12:30:36;;;;;;;9.00;5.43;;;;;;;;;;4973647;28;21593;-78
2024/03/01 12:33:12;;;;;;;9.20;5.88;;;;;;;;;;4954269;28;20140;-77
2024/03/01 12:35:42;;;;;;;8.30;4.75;;;;;;;;;;4955186;28;20071;-78
2024/03/01 12:38:16;;;;;;;9.38;5.90;;;;;;;;;;4953466;28;20047;-77
2024/03/01 12:41:01;;;;;;;10.63;6.10;;;;;;;;;;4960682;28;20055;-78
2024/03/01 12:43:39;;;;;;;7.93;5.40;;;;;;;;;;4981343;28;20105;-79
2024/03/01 12:46:19;;;;;;;7.95;5.22;;;;;;;;;;4959198;28;20052;-79
2024/03/01 12:49:06;;;;;;;7.70;5.38;;;;;;;;;;4956380;28;20572;-80
2024/03/01 12:51:37;;;;;;;6.97;4.65;;;;;;;;;;4940901;28;20070;-80
2024/03/01 12:54:11;;;;;;;8.15;5.13;;;;;;;;;;4937729;28;20055;-79
2024/03/01 12:56:41;;;;;;;10.02;5.25;;;;;;;;;;4942389;29;20128;-80
2024/03/01 12:59:37;;;;;;;12.38;6.43;;;;;;;;;;4973776;28;20047;-80
2024/03/01 13:02:25;;;;;;;9.18;5.45;;;;;;;;;;4953627;28;20058;-80
2024/03/01 13:05:06;;;;;;;8.00;5.00;;;;;;;;;;4973931;28;20058;-81
2024/03/01 13:07:34;;;;;;;10.70;5.28;;;;;;;;;;4978948;28;20062;-81
2024/03/01 13:10:01;;;;;;;10.30;5.35;;;;;;;;;;4955786;28;20047;-82
2024/03/01 13:12:28;;;;;;;11.73;6.57;;;;;;;;;;4937663;28;20051;-82
2024/03/01 13:15:16;;;;;;;16.35;7.35;;;;;;;;;;4955005;28;20517;-81
2024/03/01 13:17:55;;;;;;;13.88;7.68;;;;;;;;;;4940197;29;20126;-80
2024/03/01 13:20:28;;;;;;;13.68;7.75;;;;;;;;;;4954262;28;20106;-80
2024/03/01 13:22:58;;;;;;;16.25;8.60;;;;;;;;;;4954444;28;21050;-80
2024/03/01 13:25:28;;;;;;;14.52;8.73;;;;;;;;;;4941381;28;20055;-81
2024/03/01 13:28:00;;;;;;;15.10;9.23;;;;;;;;;;4958139;28;20062;-79
2024/03/01 13:30:30;;;;;;;26.95;16.15;;;;;;;;;;4959146;28;20047;-80
2024/03/01 13:33:08;;;;;;;26.00;14.75;;;;;;;;;;4960429;28;20051;-80
2024/03/01 13:35:36;;;;;;;19.67;11.50;;;;;;;;;;4944037;29;20061;-80
2024/03/01 13:38:18;;;;;;;19.25;9.88;;;;;;;;;;4959321;28;20429;-79
2024/03/01 13:40:48;;;;;;;18.40;10.93;;;;;;;;;;4945092;28;20059;-79
2024/03/01 13:43:19;;;;;;;24.52;11.38;;;;;;;;;;4961221;28;20051;-79
2024/03/01 13:45:46;;;;;;;20.25;11.40;;;;;;;;;;4945459;29;20105;-78
2024/03/01 13:48:33;;;;;;;18.95;11.52;;;;;;;;;;4944857;28;20058;-79
2024/03/01 13:51:01;;;;;;;17.13;11.02;;;;;;;;;;4958612;28;20138;-79
2024/03/01 13:53:29;;;;;;;20.15;10.48;;;;;;;;;;4963153;28;20091;-79
2024/03/01 13:55:56;;;;;;;19.88;11.90;;;;;;;;;;4962262;28;20059;-79
2024/03/01 13:58:30;;;;;;;23.15;12.00;;;;;;;;;;4945093;29;20070;-79
2024/03/01 14:00:58;;;;;;;18.98;11.65;;;;;;;;;;4965409;28;20059;-80
2024/03/01 14:03:25;;;;;;;17.75;11.00;;;;;;;;;;4944953;29;20062;-79
2024/03/01 14:05:55;;;;;;;18.00;10.52;;;;;;;;;;4944881;28;20126;-79
2024/03/01 14:08:22;;;;;;;20.27;11.80;;;;;;;;;;4961501;28;20051;-78
2024/03/01 14:10:49;;;;;;;21.08;11.98;;;;;;;;;;4976503;28;20047;-79
2024/03/01 14:13:22;;;;;;;24.35;12.65;;;;;;;;;;4945891;29;20051;-79
2024/03/01 14:15:49;;;;;;;19.13;11.13;;;;;;;;;;4957821;29;20050;-79
2024/03/01 14:18:16;;;;;;;19.83;11.95;;;;;;;;;;4938698;28;20490;-78
2024/03/01 14:20:46;;;;;;;17.83;11.23;;;;;;;;;;4939105;29;20399;-79
2024/03/01 14:23:13;;;;;;;20.85;12.13;;;;;;;;;;4955965;28;20055;-78
2024/03/01 14:25:39;;;;;;;23.08;12.40;;;;;;;;;;4956777;28;20055;-79
2024/03/01 14:28:06;;;;;;;20.65;13.20;;;;;;;;;;4957344;28;20055;-79
2024/03/01 14:30:33;;;;;;;23.50;11.95;;;;;;;;;;4942322;29;20413;-79
2024/03/01 14:33:20;;;;;;;20.77;12.07;;;;;;;;;;4942223;28;20066;-79
2024/03/01 14:35:47;;;;;;;22.73;13.02;;;;;;;;;;4942301;28;20051;-80